createdAt,value
2022-09-23T00:01:01.773Z,4.60
2022-09-23T00:06:10.791Z,4.50
2022-09-23T00:11:15.851Z,4.50
2022-09-23T00:21:50.890Z,4.50
2022-09-23T00:26:54.058Z,4.40
2022-09-23T00:31:57.360Z,4.40
2022-09-23T00:37:02.072Z,4.40
2022-09-23T00:42:05.637Z,4.50
2022-09-23T00:47:19.207Z,4.50
2022-09-23T00:52:25.971Z,4.50
2022-09-23T00:57:30.711Z,4.50
2022-09-23T01:02:34.087Z,4.40
2022-09-23T01:07:38.757Z,4.30
2022-09-23T01:13:00.057Z,4.30
2022-09-23T01:18:12.917Z,4.30
2022-09-23T01:23:37.215Z,4.40
2022-09-23T01:29:04.365Z,4.40
2022-09-23T01:34:13.731Z,4.40
2022-09-23T01:39:23.279Z,4.40
2022-09-23T01:44:33.483Z,4.40
2022-09-23T01:49:46.103Z,4.30
2022-09-23T01:54:54.274Z,4.30
2022-09-23T02:00:09.022Z,4.30
2022-09-23T02:05:18.507Z,4.20
2022-09-23T02:10:25.751Z,4.20
2022-09-23T02:15:33.539Z,4.20
2022-09-23T02:20:40.662Z,4.10
2022-09-23T02:25:52.298Z,4.00
2022-09-23T02:31:04.024Z,3.80
2022-09-23T02:36:14.287Z,3.70
2022-09-23T02:41:24.273Z,3.60
2022-09-23T02:46:28.524Z,3.50
2022-09-23T02:51:38.002Z,3.30
2022-09-23T02:56:41.635Z,3.30
2022-09-23T03:01:53.148Z,3.20
2022-09-23T03:07:03.475Z,3.10
2022-09-23T03:12:15.680Z,3.00
2022-09-23T03:17:26.882Z,3.00
2022-09-23T03:22:36.475Z,2.90
2022-09-23T03:27:41.898Z,2.80
2022-09-23T03:32:47.899Z,2.80
2022-09-23T03:37:56.551Z,2.90
2022-09-23T03:43:01.529Z,2.90
2022-09-23T03:48:04.894Z,2.90
2022-09-23T03:53:09.558Z,2.90
2022-09-23T03:58:12.720Z,2.80
2022-09-23T04:03:16.206Z,2.90
2022-09-23T04:08:25.138Z,2.90
2022-09-23T04:13:28.617Z,2.70
2022-09-23T04:18:32.399Z,2.60
2022-09-23T04:23:36.992Z,2.50
2022-09-23T04:28:40.533Z,2.50
2022-09-23T04:33:45.841Z,2.50
2022-09-23T04:38:51.087Z,2.50
2022-09-23T04:43:54.387Z,2.50
2022-09-23T04:48:58.038Z,2.40
2022-09-23T04:54:02.834Z,2.40
2022-09-23T04:59:07.044Z,2.40
2022-09-23T05:04:13.440Z,2.40
2022-09-23T05:09:18.708Z,2.40
2022-09-23T05:14:22.270Z,2.60
2022-09-23T05:19:25.478Z,2.60
2022-09-23T05:24:30.023Z,2.70
2022-09-23T05:29:33.213Z,2.80
2022-09-23T05:34:36.579Z,2.90
2022-09-23T05:39:41.136Z,3.10
2022-09-23T05:44:44.250Z,3.20
2022-09-23T05:49:59.703Z,3.30
2022-09-23T05:55:05.533Z,3.40
2022-09-23T06:00:10.561Z,3.60
2022-09-23T06:05:13.866Z,3.80
2022-09-23T06:10:18.442Z,4.00
2022-09-23T06:15:21.871Z,4.30
2022-09-23T06:20:24.947Z,4.70
2022-09-23T06:25:35.761Z,5.00
2022-09-23T06:30:39.298Z,5.40
2022-09-23T06:35:56.564Z,7.90
2022-09-23T06:41:02.155Z,10.70
2022-09-23T06:46:07.406Z,13.90
2022-09-23T06:51:12.424Z,16.40
2022-09-23T06:56:19.945Z,17.80
2022-09-23T07:01:23.424Z,17.20
2022-09-23T07:06:26.691Z,16.40
2022-09-23T07:11:31.140Z,15.00
2022-09-23T07:16:34.218Z,14.70
2022-09-23T07:21:37.842Z,13.30
2022-09-23T07:26:45.599Z,13.20
2022-09-23T07:31:49.093Z,13.20
2022-09-23T07:36:52.198Z,13.00
2022-09-23T07:41:56.860Z,13.30
2022-09-23T07:47:00.484Z,13.60
2022-09-23T07:52:04.851Z,13.60
2022-09-23T07:57:09.436Z,13.30
2022-09-23T08:02:16.502Z,13.10
2022-09-23T08:07:19.875Z,12.70
2022-09-23T08:12:24.293Z,12.60
2022-09-23T08:17:27.948Z,12.80
2022-09-23T08:22:31.048Z,13.40
2022-09-23T08:27:35.605Z,13.70
2022-09-23T08:32:38.737Z,14.30
2022-09-23T08:37:41.982Z,14.60
2022-09-23T08:42:47.489Z,14.90
2022-09-23T08:47:54.571Z,15.30
2022-09-23T08:53:01.760Z,15.10
2022-09-23T08:58:28.828Z,15.60
2022-09-23T09:03:36.760Z,15.20
2022-09-23T09:08:41.358Z,15.30
2022-09-23T09:13:54.891Z,16.10
2022-09-23T09:19:01.344Z,16.80
2022-09-23T09:24:13.576Z,17.30
2022-09-23T09:29:34.709Z,18.20
2022-09-23T09:34:41.857Z,17.70
2022-09-23T09:39:44.988Z,17.40
2022-09-23T09:45:22.096Z,18.10
2022-09-23T09:50:44.148Z,18.90
2022-09-23T09:55:50.728Z,19.00
2022-09-23T10:00:55.499Z,19.00
2022-09-23T10:05:58.577Z,19.40
2022-09-23T10:11:04.484Z,19.00
2022-09-23T10:16:09.619Z,18.90
2022-09-23T10:21:15.366Z,18.50
2022-09-23T10:26:19.134Z,18.30
2022-09-23T10:31:27.379Z,18.40
2022-09-23T10:36:32.798Z,18.10
2022-09-23T10:42:04.319Z,18.00
2022-09-23T10:47:20.703Z,18.00
2022-09-23T10:52:46.316Z,18.50
2022-09-23T10:58:10.339Z,18.90
2022-09-23T11:03:45.999Z,19.10
2022-09-23T11:09:04.945Z,18.90
2022-09-23T11:20:18.344Z,19.50
2022-09-23T11:25:35.576Z,19.60
2022-09-23T11:30:47.923Z,19.40
2022-09-23T11:35:57.333Z,19.60
2022-09-23T11:41:03.135Z,19.60
2022-09-23T11:46:14.188Z,19.60
2022-09-23T11:51:25.537Z,19.70
2022-09-23T11:56:36.785Z,19.40
2022-09-23T12:01:45.862Z,19.60
2022-09-23T12:06:58.102Z,20.20
2022-09-23T12:12:05.873Z,20.10
2022-09-23T12:17:27.549Z,20.20
2022-09-23T12:22:46.028Z,20.00
2022-09-23T12:27:54.727Z,20.00
2022-09-23T12:33:08.992Z,20.00
2022-09-23T12:38:25.103Z,20.20
2022-09-23T12:43:34.557Z,20.30
2022-09-23T12:49:05.408Z,20.40
2022-09-23T12:54:25.710Z,20.00
2022-09-23T12:59:31.528Z,20.30
2022-09-23T13:05:03.083Z,20.50
2022-09-23T13:15:43.116Z,21.00
2022-09-23T13:20:47.084Z,20.70
2022-09-23T13:25:53.494Z,20.50
2022-09-23T13:30:56.842Z,20.60
2022-09-23T13:36:04.233Z,20.60
2022-09-23T13:41:14.984Z,20.50
2022-09-23T13:46:23.731Z,20.50
2022-09-23T13:51:30.267Z,20.60
2022-09-23T13:56:37.857Z,20.50
2022-09-23T14:01:40.987Z,20.20
2022-09-23T14:06:44.122Z,20.20
2022-09-23T14:11:50.538Z,20.30
2022-09-23T14:16:55.486Z,20.30
2022-09-23T14:21:58.933Z,20.60
2022-09-23T14:27:17.194Z,20.50
2022-09-23T14:32:24.162Z,20.20
2022-09-23T14:37:48.811Z,20.00
2022-09-23T14:42:59.865Z,19.70
2022-09-23T14:48:07.442Z,19.50
2022-09-23T14:53:41.436Z,19.30
2022-09-23T14:58:52.620Z,19.40
2022-09-23T15:03:58.401Z,19.20
2022-09-23T15:09:06.755Z,19.40
2022-09-23T15:14:36.210Z,19.50
2022-09-23T15:19:37.520Z,19.60
2022-09-23T15:24:44.880Z,19.50
2022-09-23T15:29:51.308Z,19.30
2022-09-23T15:34:54.681Z,19.20
2022-09-23T15:39:58.033Z,18.70
2022-09-23T15:45:03.189Z,18.40
2022-09-23T15:50:07.695Z,18.20
2022-09-23T15:55:17.061Z,18.10
2022-09-23T16:00:21.904Z,17.90
2022-09-23T16:05:33.696Z,17.70
2022-09-23T16:10:37.519Z,17.50
2022-09-23T16:15:42.540Z,17.40
2022-09-23T16:20:47.783Z,17.10
2022-09-23T16:25:50.958Z,16.90
2022-09-23T16:30:55.453Z,16.60
2022-09-23T16:36:00.900Z,16.40
2022-09-23T16:41:04.165Z,16.20
2022-09-23T16:46:09.046Z,16.00
2022-09-23T16:51:17.232Z,15.80
2022-09-23T16:56:27.965Z,15.60
2022-09-23T17:01:53.481Z,15.40
2022-09-23T17:06:56.854Z,15.30
2022-09-23T17:12:10.662Z,15.20
2022-09-23T17:17:15.524Z,14.90
2022-09-23T17:22:18.641Z,14.60
2022-09-23T17:27:21.816Z,14.40
2022-09-23T17:32:26.649Z,14.10
2022-09-23T17:42:58.364Z,13.70
2022-09-23T17:48:06.586Z,13.60
2022-09-23T17:53:09.964Z,13.50
2022-09-23T17:58:13.173Z,13.30
2022-09-23T18:03:17.759Z,13.00
2022-09-23T18:08:21.119Z,12.90
2022-09-23T18:13:24.175Z,12.70
2022-09-23T18:18:28.762Z,12.60
2022-09-23T18:23:31.958Z,12.50
2022-09-23T18:28:35.153Z,12.40
2022-09-23T18:33:39.859Z,12.40
2022-09-23T18:38:43.413Z,12.40
2022-09-23T18:43:48.781Z,12.40
2022-09-23T18:49:12.047Z,12.50
2022-09-23T18:54:16.111Z,12.40
2022-09-23T19:04:52.627Z,12.50
2022-09-23T19:09:55.730Z,12.50
2022-09-23T19:14:58.871Z,12.40
2022-09-23T19:20:04.945Z,12.40
2022-09-23T19:25:10.044Z,12.30
2022-09-23T19:30:13.600Z,12.20
2022-09-23T19:35:18.089Z,12.10
2022-09-23T19:40:21.536Z,11.90
2022-09-23T19:45:25.130Z,11.70
2022-09-23T19:50:34.700Z,11.60
2022-09-23T19:55:38.493Z,11.40
2022-09-23T20:00:41.803Z,11.30
2022-09-23T20:05:54.932Z,11.20
2022-09-23T20:10:58.133Z,11.20
2022-09-23T20:16:02.360Z,11.10
2022-09-23T20:21:08.533Z,11.10
2022-09-23T20:31:58.873Z,11.00
2022-09-23T20:37:04.386Z,11.00
2022-09-23T20:42:09.285Z,11.00
2022-09-23T20:47:14.146Z,11.00
2022-09-23T20:52:20.375Z,10.90
2022-09-23T20:57:24.597Z,10.90
2022-09-23T21:02:27.967Z,10.80
2022-09-23T21:07:32.687Z,10.80
2022-09-23T21:12:36.362Z,10.70
2022-09-23T21:17:39.564Z,10.50
2022-09-23T21:22:44.240Z,10.40
2022-09-23T21:27:53.520Z,10.20
2022-09-23T21:32:57.340Z,10.10
2022-09-23T21:38:02.668Z,10.10
2022-09-23T21:43:06.480Z,10.10
2022-09-23T21:48:09.636Z,10.00
2022-09-23T21:53:14.862Z,10.00
2022-09-23T21:58:17.930Z,10.00
2022-09-23T22:08:52.836Z,9.90
2022-09-23T22:13:55.916Z,9.80
2022-09-23T22:19:01.249Z,9.70
2022-09-23T22:24:07.646Z,9.60
2022-09-23T22:29:30.970Z,9.60
2022-09-23T22:34:51.665Z,9.60
2022-09-23T22:39:57.073Z,9.60
2022-09-23T22:45:00.343Z,9.50
2022-09-23T22:50:04.944Z,9.50
2022-09-23T22:55:10.580Z,9.50
2022-09-23T23:00:14.797Z,9.40
2022-09-23T23:05:18.009Z,9.40
2022-09-23T23:10:24.220Z,9.40
2022-09-23T23:15:28.681Z,9.20
2022-09-23T23:20:32.904Z,9.20
2022-09-23T23:25:37.378Z,9.10
2022-09-23T23:30:40.621Z,9.10
2022-09-23T23:35:51.678Z,9.10
2022-09-23T23:40:56.516Z,9.30
2022-09-23T23:46:00.413Z,9.30
2022-09-23T23:51:06.481Z,9.40
2022-09-23T23:56:14.013Z,9.40
